createdAt,value
2018-08-24T03:05:38.687Z,15.80
2018-08-24T03:09:42.765Z,15.90
2018-08-24T03:13:47.036Z,15.80
2018-08-24T03:17:54.574Z,15.70
2018-08-24T03:21:58.945Z,15.70
2018-08-24T03:26:03.210Z,15.70
2018-08-24T03:30:07.644Z,15.60
2018-08-24T03:34:12.032Z,15.80
2018-08-24T03:38:16.479Z,15.60
2018-08-24T03:42:20.730Z,15.60
2018-08-24T03:46:24.939Z,15.60
2018-08-24T03:50:29.163Z,15.50
2018-08-24T03:54:33.381Z,15.50
2018-08-24T03:58:37.657Z,15.50
2018-08-24T04:02:41.866Z,15.50
2018-08-24T04:06:46.564Z,15.40
2018-08-24T04:10:50.768Z,15.40
2018-08-24T04:14:55.044Z,15.50
2018-08-24T04:18:59.325Z,15.40
2018-08-24T04:23:03.601Z,15.40
2018-08-24T04:27:08.173Z,15.40
2018-08-24T04:31:12.413Z,15.40
2018-08-24T04:35:16.656Z,15.50
2018-08-24T04:39:20.923Z,15.70
2018-08-24T04:43:25.121Z,15.60
2018-08-24T04:47:29.377Z,15.60
2018-08-24T04:51:33.691Z,15.70
2018-08-24T04:55:38.947Z,15.70
2018-08-24T04:59:43.172Z,15.70
2018-08-24T05:03:47.453Z,15.80
2018-08-24T05:07:51.636Z,15.90
2018-08-24T05:11:55.993Z,16.00
2018-08-24T05:16:01.619Z,16.10
2018-08-24T05:20:05.979Z,16.30
2018-08-24T05:24:10.288Z,16.40
2018-08-24T05:28:14.913Z,16.50
2018-08-24T05:32:19.020Z,16.60
2018-08-24T05:36:23.228Z,16.70
2018-08-24T05:40:27.456Z,16.80
2018-08-24T05:44:31.831Z,17.00
2018-08-24T05:48:36.160Z,17.10
2018-08-24T05:52:40.453Z,17.20
2018-08-24T05:56:44.650Z,17.30
2018-08-24T06:00:50.045Z,17.50
2018-08-24T06:04:54.242Z,17.70
2018-08-24T06:09:03.677Z,18.00
2018-08-24T06:13:07.988Z,18.40
2018-08-24T06:17:17.367Z,18.70
2018-08-24T06:21:21.633Z,18.90
2018-08-24T06:25:25.948Z,19.00
2018-08-24T06:29:30.149Z,19.20
2018-08-24T06:33:34.384Z,19.50
2018-08-24T06:37:38.711Z,19.70
2018-08-24T06:41:44.146Z,19.80
2018-08-24T06:45:48.278Z,20.10
2018-08-24T06:49:52.647Z,20.30
2018-08-24T06:53:57.022Z,20.50
2018-08-24T06:58:01.296Z,20.80
2018-08-24T07:02:05.520Z,21.00
2018-08-24T07:06:09.948Z,21.30
2018-08-24T07:10:14.151Z,21.50
2018-08-24T07:14:18.460Z,21.80
2018-08-24T07:18:22.764Z,22.10
2018-08-24T07:22:27.084Z,22.50
2018-08-24T07:26:31.296Z,22.70
2018-08-24T07:30:35.549Z,23.00
2018-08-24T07:34:42.280Z,23.30
2018-08-24T07:38:46.572Z,23.40
2018-08-24T07:42:50.744Z,23.70
2018-08-24T07:46:54.986Z,23.90
2018-08-24T07:50:59.441Z,24.00
2018-08-24T07:55:03.580Z,24.30
2018-08-24T07:59:07.914Z,24.40
2018-08-24T08:03:12.113Z,24.60
2018-08-24T08:07:16.306Z,24.70
2018-08-24T08:11:20.653Z,25.00
2018-08-24T08:15:25.013Z,25.60
2018-08-24T08:19:30.611Z,25.60
2018-08-24T08:23:34.810Z,25.90
2018-08-24T08:27:39.127Z,26.10
2018-08-24T08:31:43.325Z,26.10
2018-08-24T08:35:47.715Z,26.30
2018-08-24T08:39:52.685Z,26.50
2018-08-24T08:43:56.879Z,26.90
2018-08-24T08:48:01.044Z,27.40
2018-08-24T08:52:05.307Z,27.60
2018-08-24T08:56:09.992Z,28.00
2018-08-24T09:00:14.304Z,28.40
2018-08-24T09:04:18.677Z,29.50
2018-08-24T09:08:22.895Z,28.90
2018-08-24T09:12:27.117Z,29.30
2018-08-24T09:16:31.409Z,29.60
2018-08-24T09:20:40.672Z,30.10
2018-08-24T09:24:50.184Z,30.50
2018-08-24T09:28:55.430Z,30.10
2018-08-24T09:32:59.872Z,29.60
2018-08-24T09:37:08.153Z,29.70
2018-08-24T09:41:12.373Z,29.90
2018-08-24T09:45:16.534Z,30.50
2018-08-24T09:49:27.214Z,30.70
2018-08-24T09:53:36.416Z,30.90
2018-08-24T09:57:40.815Z,30.90
2018-08-24T10:01:50.073Z,31.60
2018-08-24T10:05:59.356Z,31.90
2018-08-24T10:10:04.000Z,32.80
2018-08-24T10:14:08.791Z,32.70
2018-08-24T10:18:13.140Z,32.00
2018-08-24T10:22:17.529Z,32.60
2018-08-24T10:26:21.743Z,33.00
2018-08-24T10:30:26.018Z,34.00
2018-08-24T10:34:30.248Z,33.80
2018-08-24T10:38:34.451Z,33.00
2018-08-24T10:42:38.830Z,33.40
2018-08-24T10:46:43.223Z,33.30
2018-08-24T10:50:47.519Z,33.40
2018-08-24T10:54:51.972Z,33.30
2018-08-24T10:58:56.320Z,33.60
2018-08-24T11:03:00.556Z,32.90
2018-08-24T11:07:05.290Z,33.10
2018-08-24T11:11:09.908Z,33.20
2018-08-24T11:15:14.192Z,33.20
2018-08-24T11:19:18.413Z,32.50
2018-08-24T11:23:22.717Z,32.30
2018-08-24T11:27:27.033Z,32.00
2018-08-24T11:31:32.533Z,31.80
2018-08-24T11:35:37.980Z,31.10
2018-08-24T11:39:42.232Z,30.00
2018-08-24T11:43:46.541Z,28.90
2018-08-24T11:47:50.753Z,27.80
2018-08-24T11:51:55.189Z,27.10
2018-08-24T11:55:59.470Z,25.10
2018-08-24T12:00:03.766Z,23.30
2018-08-24T12:04:08.041Z,22.50
2018-08-24T12:08:12.405Z,22.30
2018-08-24T12:12:16.668Z,22.30
2018-08-24T12:16:21.165Z,22.50
2018-08-24T12:20:25.387Z,22.60
2018-08-24T12:24:29.784Z,22.60
2018-08-24T12:28:34.069Z,22.60
2018-08-24T12:32:38.457Z,22.20
2018-08-24T12:36:42.684Z,21.90
2018-08-24T12:40:47.001Z,21.70
2018-08-24T12:44:52.370Z,21.40
2018-08-24T12:48:57.810Z,21.30
2018-08-24T12:53:02.036Z,21.20
2018-08-24T12:57:06.447Z,21.30
2018-08-24T13:01:10.707Z,21.60
2018-08-24T13:05:15.051Z,22.10
2018-08-24T13:09:19.841Z,22.60
2018-08-24T13:13:24.136Z,23.10
2018-08-24T13:17:28.424Z,23.50
2018-08-24T13:21:32.785Z,24.30
2018-08-24T13:25:36.977Z,25.60
2018-08-24T13:29:41.264Z,26.70
2018-08-24T13:33:45.687Z,27.30
2018-08-24T13:37:50.023Z,27.00
2018-08-24T13:41:54.205Z,25.70
2018-08-24T13:45:58.417Z,25.20
2018-08-24T13:50:04.231Z,27.00
2018-08-24T13:54:08.785Z,26.50
2018-08-24T13:58:13.097Z,25.90
2018-08-24T14:02:17.783Z,25.50
2018-08-24T14:06:22.277Z,24.80
2018-08-24T14:10:26.755Z,24.60
2018-08-24T14:14:31.089Z,24.60
2018-08-24T14:18:35.333Z,24.30
2018-08-24T14:22:40.904Z,24.30
2018-08-24T14:26:45.251Z,23.90
2018-08-24T14:30:49.960Z,23.90
2018-08-24T14:34:54.408Z,23.70
2018-08-24T14:38:58.624Z,23.00
2018-08-24T14:43:02.972Z,22.10
2018-08-24T14:47:07.269Z,21.90
2018-08-24T14:51:12.105Z,21.70
2018-08-24T14:55:16.751Z,21.90
2018-08-24T14:59:21.620Z,22.20
2018-08-24T15:03:26.128Z,22.20
2018-08-24T15:07:37.940Z,22.00
2018-08-24T15:11:42.665Z,21.40
2018-08-24T15:15:47.015Z,21.20
2018-08-24T15:19:51.385Z,21.10
2018-08-24T15:23:55.798Z,21.00
2018-08-24T15:27:59.955Z,20.80
2018-08-24T15:32:04.499Z,20.70
2018-08-24T15:36:08.705Z,20.40
2018-08-24T15:40:12.980Z,20.20
2018-08-24T15:44:17.713Z,20.10
2018-08-24T15:48:24.738Z,20.00
2018-08-24T15:52:29.023Z,19.90
2018-08-24T15:56:33.415Z,19.80
2018-08-24T16:00:37.720Z,19.60
2018-08-24T16:04:41.932Z,19.50
2018-08-24T16:08:46.356Z,19.40
2018-08-24T16:12:50.758Z,19.30
2018-08-24T16:16:54.989Z,19.30
2018-08-24T16:20:59.171Z,19.30
2018-08-24T16:25:03.470Z,19.30
2018-08-24T16:29:07.698Z,19.20
2018-08-24T16:33:13.027Z,19.20
2018-08-24T16:37:17.238Z,19.10
2018-08-24T16:41:21.567Z,19.00
2018-08-24T16:45:25.779Z,18.80
2018-08-24T16:49:30.030Z,18.60
2018-08-24T16:53:34.293Z,18.50
2018-08-24T16:57:38.699Z,18.40
2018-08-24T17:01:42.875Z,18.40
2018-08-24T17:05:47.249Z,18.30
2018-08-24T17:09:51.602Z,18.20
2018-08-24T17:13:55.792Z,18.10
2018-08-24T17:18:00.253Z,18.10
2018-08-24T17:22:04.495Z,18.00
2018-08-24T17:26:08.713Z,17.90
2018-08-24T17:30:13.067Z,18.00
2018-08-24T17:34:17.375Z,18.00
2018-08-24T17:38:21.693Z,18.10
2018-08-24T17:42:26.126Z,18.10
2018-08-24T17:46:30.357Z,18.10
2018-08-24T17:50:34.702Z,18.20
2018-08-24T17:54:39.663Z,18.20
2018-08-24T17:58:44.339Z,18.00
2018-08-24T18:02:49.481Z,18.00
2018-08-24T18:06:53.731Z,18.00
2018-08-24T18:10:58.614Z,18.00
2018-08-24T18:15:03.015Z,18.00
2018-08-24T18:19:08.024Z,17.80
2018-08-24T18:23:14.167Z,17.70
2018-08-24T18:27:18.634Z,17.60
2018-08-24T18:31:22.834Z,17.70
2018-08-24T18:35:27.497Z,17.70
2018-08-24T18:39:31.940Z,17.80
2018-08-24T18:43:36.132Z,17.80
2018-08-24T18:47:40.649Z,17.70
2018-08-24T18:51:45.076Z,17.60
2018-08-24T18:55:49.384Z,17.70
2018-08-24T18:59:53.614Z,17.70
2018-08-24T19:03:58.089Z,17.70
2018-08-24T19:08:07.376Z,17.70
2018-08-24T19:12:17.053Z,17.50
2018-08-24T19:16:22.211Z,17.60
2018-08-24T19:20:31.630Z,17.60
2018-08-24T19:24:36.090Z,17.40
2018-08-24T19:28:45.643Z,17.30
2018-08-24T19:32:49.957Z,17.30
2018-08-24T19:36:54.469Z,17.40
2018-08-24T19:41:04.406Z,17.30
2018-08-24T19:45:12.477Z,17.40
2018-08-24T19:49:19.179Z,17.30
2018-08-24T19:53:23.820Z,17.20
2018-08-24T19:58:34.332Z,17.30
2018-08-24T20:02:38.624Z,17.40
2018-08-24T20:06:48.335Z,17.40
2018-08-24T20:10:53.696Z,17.50
2018-08-24T20:15:04.190Z,17.30
2018-08-24T20:19:08.544Z,17.20
2018-08-24T20:23:13.101Z,17.20
2018-08-24T20:27:17.289Z,17.30
2018-08-24T20:31:21.697Z,17.40
2018-08-24T20:35:25.901Z,17.30
2018-08-24T20:39:30.313Z,17.20
2018-08-24T20:43:34.581Z,17.20
2018-08-24T20:47:38.891Z,17.30
2018-08-24T20:51:43.740Z,17.30
2018-08-24T20:55:49.618Z,17.30
2018-08-24T20:59:54.137Z,17.20
2018-08-24T21:03:59.216Z,17.20
2018-08-24T21:08:04.499Z,17.20
2018-08-24T21:12:09.807Z,17.30
2018-08-24T21:16:14.132Z,17.40
2018-08-24T21:20:18.398Z,17.40
2018-08-24T21:24:22.850Z,17.40
2018-08-24T21:28:27.095Z,17.40
2018-08-24T21:32:31.427Z,17.30
2018-08-24T21:36:35.773Z,17.10
2018-08-24T21:40:39.997Z,17.10
2018-08-24T21:44:44.201Z,17.00
2018-08-24T21:48:48.567Z,17.00
2018-08-24T21:52:52.756Z,17.10
2018-08-24T21:56:57.037Z,17.20
2018-08-24T22:01:01.588Z,17.20
2018-08-24T22:05:05.957Z,17.30
2018-08-24T22:09:10.735Z,17.20
2018-08-24T22:13:14.957Z,17.20
2018-08-24T22:17:19.149Z,17.20
2018-08-24T22:21:23.402Z,17.30
2018-08-24T22:25:27.643Z,17.10
2018-08-24T22:29:31.849Z,17.00
2018-08-24T22:33:36.076Z,17.00
2018-08-24T22:37:40.322Z,17.00
2018-08-24T22:41:44.830Z,17.10
2018-08-24T22:45:49.039Z,17.20
2018-08-24T22:49:53.466Z,17.10
2018-08-24T22:53:57.659Z,17.10
2018-08-24T22:58:02.060Z,17.10
2018-08-24T23:02:06.327Z,17.10
2018-08-24T23:06:10.859Z,17.10
2018-08-24T23:10:15.328Z,17.20
2018-08-24T23:14:19.640Z,17.10
2018-08-24T23:18:23.875Z,17.10
2018-08-24T23:22:28.225Z,17.00
2018-08-24T23:26:32.406Z,17.10
2018-08-24T23:30:36.782Z,17.00
2018-08-24T23:34:40.983Z,17.10
2018-08-24T23:38:45.302Z,17.10
2018-08-24T23:42:49.567Z,17.20
2018-08-24T23:46:53.774Z,17.20
2018-08-24T23:50:58.091Z,17.20
2018-08-24T23:55:02.326Z,17.20
2018-08-24T23:59:06.914Z,17.10
